createdAt,value
2023-10-06T00:02:31.233Z,67.31
2023-10-06T00:04:58.984Z,67.32
2023-10-06T00:07:26.176Z,67.16
2023-10-06T00:09:56.199Z,67.29
2023-10-06T00:12:27.177Z,67.27
2023-10-06T00:14:54.256Z,67.32
2023-10-06T00:17:23.310Z,67.10
2023-10-06T00:19:53.697Z,67.12
2023-10-06T00:22:20.643Z,66.96
2023-10-06T00:24:51.971Z,66.85
2023-10-06T00:27:31.092Z,67.06
2023-10-06T00:29:58.384Z,66.66
2023-10-06T00:32:29.022Z,66.82
2023-10-06T00:35:09.041Z,66.72
2023-10-06T00:37:42.144Z,66.89
2023-10-06T00:40:20.680Z,66.76
2023-10-06T00:42:52.397Z,66.60
2023-10-06T00:45:19.267Z,66.88
2023-10-06T00:47:46.166Z,67.08
2023-10-06T00:50:13.545Z,66.73
2023-10-06T00:52:44.174Z,66.99
2023-10-06T00:55:15.991Z,66.74
2023-10-06T00:57:42.875Z,67.17
2023-10-06T01:00:22.158Z,66.96
2023-10-06T01:02:52.546Z,67.04
2023-10-06T01:05:20.752Z,67.06
2023-10-06T01:07:48.238Z,66.97
2023-10-06T01:10:18.859Z,67.38
2023-10-06T01:12:53.301Z,67.21
2023-10-06T01:15:21.028Z,67.23
2023-10-06T01:17:48.550Z,67.03
2023-10-06T01:20:51.077Z,67.32
2023-10-06T01:23:29.274Z,67.24
2023-10-06T01:25:56.948Z,67.08
2023-10-06T01:28:25.403Z,66.86
2023-10-06T01:30:52.994Z,67.19
2023-10-06T01:33:19.898Z,67.24
2023-10-06T01:35:50.684Z,67.19
2023-10-06T01:38:27.834Z,67.66
2023-10-06T01:40:55.284Z,68.01
2023-10-06T01:43:31.307Z,67.73
2023-10-06T01:46:00.457Z,68.07
2023-10-06T01:48:31.869Z,67.86
2023-10-06T01:50:58.795Z,67.66
2023-10-06T01:53:32.990Z,67.90
2023-10-06T01:56:02.654Z,67.74
2023-10-06T01:58:29.284Z,67.50
2023-10-06T02:00:56.142Z,67.42
2023-10-06T02:03:24.051Z,67.28
2023-10-06T02:05:56.375Z,67.43
2023-10-06T02:08:24.800Z,67.67
2023-10-06T02:10:51.754Z,67.76
2023-10-06T02:13:23.327Z,67.85
2023-10-06T02:16:06.551Z,68.01
2023-10-06T02:18:39.377Z,68.06
2023-10-06T02:21:10.789Z,68.57
2023-10-06T02:23:38.813Z,68.59
2023-10-06T02:26:10.747Z,69.38
2023-10-06T02:28:41.957Z,69.72
2023-10-06T02:31:08.834Z,69.98
2023-10-06T02:33:40.802Z,70.28
2023-10-06T02:36:19.446Z,70.65
2023-10-06T02:38:50.572Z,70.61
2023-10-06T02:41:20.033Z,70.90
2023-10-06T02:43:50.860Z,70.91
2023-10-06T02:46:17.808Z,70.56
2023-10-06T02:48:54.361Z,70.75
2023-10-06T02:51:34.113Z,70.73
2023-10-06T02:54:16.789Z,70.75
2023-10-06T02:56:45.381Z,71.01
2023-10-06T02:59:27.769Z,70.91
2023-10-06T03:01:58.311Z,70.35
2023-10-06T03:04:27.777Z,70.14
2023-10-06T03:06:56.972Z,69.48
2023-10-06T03:09:38.493Z,69.10
2023-10-06T03:12:35.038Z,68.69
2023-10-06T03:15:10.494Z,68.60
2023-10-06T03:17:38.117Z,68.42
2023-10-06T03:20:13.133Z,68.67
2023-10-06T03:22:41.781Z,68.44
2023-10-06T03:25:18.934Z,68.28
2023-10-06T03:27:54.561Z,67.98
2023-10-06T03:30:35.261Z,67.73
2023-10-06T03:33:05.272Z,68.04
2023-10-06T03:35:40.460Z,68.44
2023-10-06T03:38:28.910Z,68.31
2023-10-06T03:40:59.141Z,68.81
2023-10-06T03:43:42.385Z,68.70
2023-10-06T03:46:11.881Z,68.80
2023-10-06T03:48:39.928Z,68.97
2023-10-06T03:51:07.325Z,69.23
2023-10-06T03:53:34.453Z,69.28
2023-10-06T03:56:02.129Z,69.24
2023-10-06T03:58:29.652Z,69.40
2023-10-06T04:00:56.629Z,69.12
2023-10-06T04:03:24.456Z,69.42
2023-10-06T04:05:52.259Z,69.54
2023-10-06T04:08:22.678Z,69.29
2023-10-06T04:10:53.236Z,69.37
2023-10-06T04:13:21.499Z,69.54
2023-10-06T04:15:51.980Z,69.46
2023-10-06T04:18:19.619Z,69.01
2023-10-06T04:20:47.306Z,69.32
2023-10-06T04:23:14.800Z,68.86
2023-10-06T04:25:42.260Z,68.68
2023-10-06T04:28:10.470Z,68.76
2023-10-06T04:30:38.488Z,68.65
2023-10-06T04:33:06.143Z,68.87
2023-10-06T04:35:34.003Z,68.84
2023-10-06T04:38:02.259Z,69.01
2023-10-06T04:40:30.377Z,68.74
2023-10-06T04:42:58.283Z,68.63
2023-10-06T04:45:25.874Z,68.71
2023-10-06T04:47:57.141Z,69.22
2023-10-06T04:50:24.058Z,69.19
2023-10-06T04:52:51.060Z,68.99
2023-10-06T04:55:18.072Z,68.91
2023-10-06T04:57:44.972Z,69.36
2023-10-06T05:00:15.958Z,69.78
2023-10-06T05:02:46.022Z,70.17
2023-10-06T05:05:13.036Z,70.26
2023-10-06T05:07:40.419Z,70.33
2023-10-06T05:10:09.899Z,70.56
2023-10-06T05:12:38.500Z,70.63
2023-10-06T05:15:19.115Z,70.34
2023-10-06T05:17:45.922Z,70.47
2023-10-06T05:20:20.824Z,70.86
2023-10-06T05:22:50.407Z,71.14
2023-10-06T05:25:17.043Z,70.73
2023-10-06T05:27:45.888Z,70.53
2023-10-06T05:30:14.913Z,70.46
2023-10-06T05:32:44.791Z,70.43
2023-10-06T05:35:15.512Z,70.84
2023-10-06T05:37:44.418Z,70.63
2023-10-06T05:40:17.846Z,70.44
2023-10-06T05:42:44.857Z,70.44
2023-10-06T05:45:17.451Z,69.92
2023-10-06T05:47:46.549Z,70.05
2023-10-06T05:50:28.301Z,70.00
2023-10-06T05:52:59.379Z,69.80
2023-10-06T05:55:30.821Z,69.53
2023-10-06T05:57:59.514Z,69.63
2023-10-06T06:00:28.296Z,69.60
2023-10-06T06:02:59.425Z,69.49
2023-10-06T06:05:30.977Z,69.91
2023-10-06T06:08:01.935Z,69.63
2023-10-06T06:10:32.128Z,69.70
2023-10-06T06:13:01.352Z,69.64
2023-10-06T06:15:28.595Z,69.71
2023-10-06T06:17:55.545Z,69.63
2023-10-06T06:20:25.458Z,69.72
2023-10-06T06:22:56.644Z,69.75
2023-10-06T06:25:33.146Z,69.71
2023-10-06T06:28:03.081Z,69.86
2023-10-06T06:30:33.808Z,70.23
2023-10-06T06:33:02.842Z,70.46
2023-10-06T06:35:30.867Z,70.74
2023-10-06T06:38:06.178Z,71.29
2023-10-06T06:40:33.928Z,72.20
2023-10-06T06:43:03.559Z,72.77
2023-10-06T06:45:30.536Z,72.16
2023-10-06T06:47:57.838Z,72.32
2023-10-06T06:50:24.779Z,72.45
2023-10-06T06:52:55.192Z,72.56
2023-10-06T06:55:22.265Z,72.64
2023-10-06T06:57:55.916Z,72.79
2023-10-06T07:00:24.418Z,72.39
2023-10-06T07:02:52.871Z,71.69
2023-10-06T07:05:21.425Z,71.72
2023-10-06T07:07:50.188Z,71.93
2023-10-06T07:10:21.262Z,72.18
2023-10-06T07:12:51.589Z,71.81
2023-10-06T07:15:19.482Z,71.23
2023-10-06T07:17:47.841Z,70.51
2023-10-06T07:20:22.269Z,69.79
2023-10-06T07:22:49.457Z,68.99
2023-10-06T07:25:17.010Z,68.75
2023-10-06T07:27:48.556Z,69.11
2023-10-06T07:30:16.175Z,69.05
2023-10-06T07:32:44.408Z,69.63
2023-10-06T07:35:19.020Z,69.47
2023-10-06T07:37:53.826Z,69.47
2023-10-06T07:40:22.735Z,69.35
2023-10-06T07:42:54.420Z,69.58
2023-10-06T07:45:23.492Z,69.92
2023-10-06T07:47:52.162Z,69.84
2023-10-06T07:50:19.037Z,69.79
2023-10-06T07:52:47.714Z,69.46
2023-10-06T07:55:14.764Z,69.25
2023-10-06T07:57:46.907Z,69.08
2023-10-06T08:00:19.901Z,69.05
2023-10-06T08:02:47.251Z,69.05
2023-10-06T08:05:18.375Z,68.86
2023-10-06T08:07:45.432Z,68.79
2023-10-06T08:10:16.141Z,68.97
2023-10-06T08:12:46.963Z,68.69
2023-10-06T08:15:18.523Z,68.59
2023-10-06T08:17:51.816Z,68.23
2023-10-06T08:20:18.781Z,68.33
2023-10-06T08:22:48.663Z,68.12
2023-10-06T08:25:16.235Z,68.21
2023-10-06T08:27:43.608Z,68.16
2023-10-06T08:30:17.630Z,68.18
2023-10-06T08:32:48.801Z,68.19
2023-10-06T08:35:15.816Z,68.19
2023-10-06T08:37:46.264Z,67.73
2023-10-06T08:40:17.607Z,67.80
2023-10-06T08:42:50.441Z,67.25
2023-10-06T08:45:21.114Z,66.86
2023-10-06T08:48:00.880Z,66.61
2023-10-06T08:50:32.881Z,65.58
2023-10-06T08:53:02.606Z,65.05
2023-10-06T08:55:30.372Z,65.27
2023-10-06T08:58:02.795Z,64.90
2023-10-06T09:00:33.048Z,64.26
2023-10-06T09:03:09.606Z,63.57
2023-10-06T09:05:41.076Z,62.08
2023-10-06T09:08:10.279Z,61.60
2023-10-06T09:10:37.814Z,60.69
2023-10-06T09:13:08.599Z,59.61
2023-10-06T09:15:40.301Z,58.39
2023-10-06T09:18:22.215Z,56.36
2023-10-06T09:20:50.075Z,56.68
2023-10-06T09:23:44.405Z,54.63
2023-10-06T09:26:13.174Z,53.22
2023-10-06T09:28:52.379Z,51.28
2023-10-06T09:31:34.368Z,49.51
2023-10-06T09:34:01.226Z,47.80
2023-10-06T09:36:44.926Z,46.66
2023-10-06T09:39:16.225Z,47.47
2023-10-06T09:41:43.238Z,46.48
2023-10-06T09:44:13.482Z,46.14
2023-10-06T09:46:43.106Z,45.72
2023-10-06T09:49:10.986Z,45.50
2023-10-06T09:51:37.979Z,45.76
2023-10-06T09:54:05.869Z,45.69
2023-10-06T09:56:33.009Z,44.51
2023-10-06T09:59:00.908Z,44.69
2023-10-06T10:01:29.925Z,44.11
2023-10-06T10:03:57.378Z,43.66
2023-10-06T10:06:24.543Z,43.17
2023-10-06T10:08:52.717Z,42.18
2023-10-06T10:11:31.332Z,41.87
2023-10-06T10:14:04.220Z,42.35
2023-10-06T10:16:55.880Z,41.98
2023-10-06T10:19:26.856Z,41.13
2023-10-06T10:21:55.045Z,40.82
2023-10-06T10:26:51.970Z,39.26
2023-10-06T10:29:18.773Z,39.28
2023-10-06T10:32:03.798Z,37.60
2023-10-06T10:34:35.362Z,37.31
2023-10-06T10:37:08.139Z,36.42
2023-10-06T10:40:01.057Z,36.47
2023-10-06T10:42:41.116Z,36.18
2023-10-06T10:45:35.917Z,35.15
2023-10-06T10:48:06.872Z,34.31
2023-10-06T10:51:07.272Z,34.30
2023-10-06T10:53:39.384Z,34.41
2023-10-06T10:56:08.298Z,34.41
2023-10-06T10:58:49.556Z,33.83
2023-10-06T11:01:27.790Z,32.83
2023-10-06T11:04:32.073Z,32.71
2023-10-06T11:07:03.104Z,32.61
2023-10-06T11:09:29.910Z,32.52
2023-10-06T11:12:20.912Z,31.70
2023-10-06T11:14:51.279Z,31.53
2023-10-06T11:17:22.405Z,31.60
2023-10-06T11:20:01.530Z,31.51
2023-10-06T11:22:31.303Z,32.26
2023-10-06T11:25:03.520Z,31.27
2023-10-06T11:27:30.543Z,31.90
2023-10-06T11:29:59.639Z,31.06
2023-10-06T11:32:28.021Z,31.38
2023-10-06T11:34:55.789Z,31.02
2023-10-06T11:37:26.703Z,31.09
2023-10-06T11:39:54.270Z,31.38
2023-10-06T11:42:28.087Z,30.67
2023-10-06T11:44:55.862Z,30.89
2023-10-06T11:47:28.872Z,30.16
2023-10-06T11:50:01.909Z,29.49
2023-10-06T11:52:29.138Z,29.73
2023-10-06T11:54:58.838Z,29.98
2023-10-06T11:57:46.533Z,30.19
2023-10-06T12:00:19.651Z,31.17
2023-10-06T12:02:55.045Z,30.03
2023-10-06T12:05:23.702Z,30.71
2023-10-06T12:07:53.487Z,30.21
2023-10-06T12:10:22.455Z,29.86
2023-10-06T12:12:51.112Z,29.45
2023-10-06T12:15:18.070Z,29.49
2023-10-06T12:17:45.640Z,28.51
2023-10-06T12:20:15.330Z,27.72
2023-10-06T12:22:46.912Z,27.65
2023-10-06T12:25:17.764Z,27.58
2023-10-06T12:27:45.388Z,28.08
2023-10-06T12:30:13.191Z,27.99
2023-10-06T12:32:43.152Z,28.00
2023-10-06T12:35:10.734Z,28.52
2023-10-06T12:37:42.049Z,28.40
2023-10-06T12:40:10.805Z,28.24
2023-10-06T12:42:40.005Z,27.87
2023-10-06T12:45:14.837Z,28.23
2023-10-06T12:47:42.005Z,26.67
2023-10-06T12:50:10.016Z,26.95
2023-10-06T12:52:38.521Z,26.76
2023-10-06T12:55:23.462Z,27.71
2023-10-06T12:57:51.176Z,28.50
2023-10-06T13:00:18.234Z,28.63
2023-10-06T13:02:45.269Z,29.08
2023-10-06T13:05:18.612Z,29.79
2023-10-06T13:07:47.744Z,29.78
2023-10-06T13:10:22.452Z,29.28
2023-10-06T13:12:52.099Z,29.29
2023-10-06T13:15:19.919Z,29.50
2023-10-06T13:17:47.693Z,30.17
2023-10-06T13:20:15.028Z,30.72
2023-10-06T13:22:42.837Z,30.71
2023-10-06T13:25:12.964Z,30.94
2023-10-06T13:27:43.613Z,31.60
2023-10-06T13:30:17.954Z,31.90
2023-10-06T13:32:49.775Z,31.99
2023-10-06T13:35:21.181Z,32.18
2023-10-06T13:37:48.656Z,32.73
2023-10-06T13:40:17.201Z,33.51
2023-10-06T13:42:51.964Z,33.79
2023-10-06T13:45:21.836Z,33.74
2023-10-06T13:47:50.788Z,33.97
2023-10-06T13:50:21.300Z,34.00
2023-10-06T13:52:50.690Z,34.57
2023-10-06T13:55:22.443Z,34.73
2023-10-06T13:57:54.848Z,34.67
2023-10-06T14:00:31.658Z,35.04
2023-10-06T14:03:08.766Z,35.13
2023-10-06T14:05:45.227Z,35.73
2023-10-06T14:08:15.230Z,35.43
2023-10-06T14:10:42.854Z,35.46
2023-10-06T14:13:12.417Z,36.14
2023-10-06T14:18:33.858Z,36.38
2023-10-06T14:21:07.365Z,36.88
2023-10-06T14:23:37.474Z,37.12
2023-10-06T14:26:10.805Z,36.83
2023-10-06T14:28:38.375Z,37.59
2023-10-06T14:31:18.110Z,38.02
2023-10-06T14:33:59.329Z,38.54
2023-10-06T14:36:27.684Z,38.58
2023-10-06T14:39:13.452Z,39.05
2023-10-06T14:41:58.663Z,39.38
2023-10-06T14:44:44.138Z,39.93
2023-10-06T14:47:11.560Z,40.63
2023-10-06T14:49:45.196Z,40.75
2023-10-06T14:52:12.561Z,41.74
2023-10-06T14:54:40.036Z,41.74
2023-10-06T14:57:07.408Z,41.80
2023-10-06T14:59:35.860Z,42.53
2023-10-06T15:02:11.971Z,41.96
2023-10-06T15:04:42.788Z,42.24
2023-10-06T15:07:16.385Z,42.89
2023-10-06T15:09:43.482Z,43.14
2023-10-06T15:12:11.001Z,43.18
2023-10-06T15:14:38.668Z,43.74
2023-10-06T15:17:06.125Z,43.59
2023-10-06T15:19:37.351Z,44.08
2023-10-06T15:22:05.050Z,43.99
2023-10-06T15:24:31.812Z,44.19
2023-10-06T15:26:59.003Z,44.52
2023-10-06T15:29:29.377Z,44.67
2023-10-06T15:31:57.174Z,44.81
2023-10-06T15:34:25.810Z,44.73
2023-10-06T15:36:52.978Z,45.19
2023-10-06T15:39:20.194Z,45.20
2023-10-06T15:41:48.321Z,45.41
2023-10-06T15:44:16.273Z,45.64
2023-10-06T15:46:43.986Z,45.44
2023-10-06T15:49:15.870Z,45.84
2023-10-06T15:51:46.733Z,46.24
2023-10-06T15:54:14.011Z,46.14
2023-10-06T15:56:41.191Z,46.22
2023-10-06T15:59:14.241Z,46.65
2023-10-06T16:01:42.054Z,46.77
2023-10-06T16:04:09.033Z,46.86
2023-10-06T16:06:37.957Z,46.87
2023-10-06T16:09:09.739Z,46.74
2023-10-06T16:11:37.316Z,47.19
2023-10-06T16:14:06.558Z,47.23
2023-10-06T16:16:36.076Z,47.79
2023-10-06T16:19:04.627Z,47.86
2023-10-06T16:21:34.786Z,48.01
2023-10-06T16:24:02.758Z,47.89
2023-10-06T16:26:31.601Z,48.27
2023-10-06T16:28:59.521Z,48.08
2023-10-06T16:31:27.314Z,48.23
2023-10-06T16:33:55.335Z,48.63
2023-10-06T16:36:23.026Z,48.64
2023-10-06T16:38:52.795Z,48.88
2023-10-06T16:41:22.950Z,49.24
2023-10-06T16:43:57.107Z,48.94
2023-10-06T16:46:24.892Z,49.16
2023-10-06T16:48:51.805Z,49.20
2023-10-06T16:51:21.968Z,49.14
2023-10-06T16:56:36.304Z,49.58
2023-10-06T16:59:03.361Z,49.86
2023-10-06T17:01:30.267Z,49.81
2023-10-06T17:04:06.912Z,49.82
2023-10-06T17:06:33.757Z,49.75
2023-10-06T17:09:00.905Z,50.23
2023-10-06T17:11:28.934Z,50.13
2023-10-06T17:13:56.243Z,50.02
2023-10-06T17:16:23.355Z,50.33
2023-10-06T17:18:50.379Z,50.47
2023-10-06T17:21:17.466Z,50.76
2023-10-06T17:23:45.517Z,51.00
2023-10-06T17:26:15.641Z,51.03
2023-10-06T17:28:42.518Z,51.28
2023-10-06T17:31:16.980Z,51.26
2023-10-06T17:33:44.487Z,51.48
2023-10-06T17:36:11.508Z,51.38
2023-10-06T17:38:38.542Z,51.60
2023-10-06T17:41:12.331Z,51.54
2023-10-06T17:43:39.664Z,51.87
2023-10-06T17:46:06.631Z,51.69
2023-10-06T17:48:33.824Z,51.59
2023-10-06T17:51:00.776Z,51.78
2023-10-06T17:53:27.660Z,51.68
2023-10-06T17:55:54.673Z,51.70
2023-10-06T17:58:22.057Z,51.68
2023-10-06T18:00:49.914Z,51.33
2023-10-06T18:03:18.759Z,51.47
2023-10-06T18:05:49.644Z,51.39
2023-10-06T18:08:17.760Z,51.52
2023-10-06T18:10:45.177Z,51.43
2023-10-06T18:13:12.251Z,51.52
2023-10-06T18:15:39.103Z,51.41
2023-10-06T18:18:08.402Z,51.44
2023-10-06T18:20:39.963Z,51.34
2023-10-06T18:23:07.342Z,51.61
2023-10-06T18:25:34.915Z,51.32
2023-10-06T18:28:05.103Z,51.43
2023-10-06T18:30:32.375Z,51.13
2023-10-06T18:32:59.388Z,51.50
2023-10-06T18:35:26.313Z,51.43
2023-10-06T18:37:54.607Z,51.78
2023-10-06T18:40:21.656Z,51.30
2023-10-06T18:42:48.847Z,51.28
2023-10-06T18:45:15.783Z,51.41
2023-10-06T18:47:42.723Z,51.36
2023-10-06T18:50:22.775Z,51.58
2023-10-06T18:52:49.675Z,51.29
2023-10-06T18:55:16.718Z,51.62
2023-10-06T18:57:43.680Z,51.51
2023-10-06T19:00:10.830Z,51.80
2023-10-06T19:02:37.850Z,51.50
2023-10-06T19:05:05.822Z,51.85
2023-10-06T19:07:32.909Z,51.97
2023-10-06T19:10:01.119Z,52.08
2023-10-06T19:12:28.017Z,52.39
2023-10-06T19:14:57.212Z,52.29
2023-10-06T19:17:24.491Z,52.59
2023-10-06T19:19:54.460Z,52.48
2023-10-06T19:22:21.505Z,52.40
2023-10-06T19:24:48.471Z,52.31
2023-10-06T19:27:15.375Z,52.17
2023-10-06T19:29:42.382Z,52.21
2023-10-06T19:32:09.225Z,52.08
2023-10-06T19:34:36.593Z,51.79
2023-10-06T19:37:04.302Z,51.60
2023-10-06T19:39:31.983Z,51.68
2023-10-06T19:41:58.879Z,51.37
2023-10-06T19:44:35.631Z,51.17
2023-10-06T19:47:04.832Z,50.78
2023-10-06T19:49:33.228Z,51.16
2023-10-06T19:52:00.124Z,50.91
2023-10-06T19:54:26.956Z,50.94
2023-10-06T19:56:53.789Z,50.92
2023-10-06T19:59:21.213Z,50.84
2023-10-06T20:01:48.262Z,50.91
2023-10-06T20:04:15.372Z,51.27
2023-10-06T20:06:42.234Z,51.25
2023-10-06T20:09:13.187Z,51.01
2023-10-06T20:11:40.045Z,51.46
2023-10-06T20:14:08.469Z,51.27
2023-10-06T20:16:35.533Z,51.50
2023-10-06T20:19:02.393Z,51.60
2023-10-06T20:21:30.843Z,51.72
2023-10-06T20:23:58.460Z,51.77
2023-10-06T20:26:25.533Z,51.53
2023-10-06T20:28:52.622Z,51.79
2023-10-06T20:31:20.178Z,51.96
2023-10-06T20:33:47.072Z,51.57
2023-10-06T20:36:13.978Z,51.88
2023-10-06T20:38:41.172Z,51.45
2023-10-06T20:41:08.055Z,50.33
2023-10-06T20:43:34.910Z,50.24
2023-10-06T20:46:08.837Z,50.28
2023-10-06T20:48:35.657Z,50.08
2023-10-06T20:51:03.467Z,49.78
2023-10-06T20:53:30.516Z,49.73
2023-10-06T20:56:02.636Z,49.91
2023-10-06T20:58:30.316Z,49.08
2023-10-06T21:00:57.405Z,48.51
2023-10-06T21:03:26.765Z,47.76
2023-10-06T21:05:53.719Z,47.42
2023-10-06T21:08:20.624Z,47.47
2023-10-06T21:10:48.017Z,47.95
2023-10-06T21:13:14.909Z,47.77
2023-10-06T21:15:43.730Z,47.12
2023-10-06T21:18:10.706Z,46.85
2023-10-06T21:20:37.640Z,47.48
2023-10-06T21:23:04.820Z,47.25
2023-10-06T21:25:31.671Z,47.87
2023-10-06T21:27:59.960Z,47.47
2023-10-06T21:30:28.927Z,47.30
2023-10-06T21:32:55.859Z,46.45
2023-10-06T21:35:22.717Z,46.10
2023-10-06T21:37:49.618Z,45.72
2023-10-06T21:40:17.559Z,45.46
2023-10-06T21:42:44.428Z,45.60
2023-10-06T21:45:11.970Z,45.17
2023-10-06T21:47:39.069Z,45.65
2023-10-06T21:50:06.555Z,45.36
2023-10-06T21:52:33.448Z,45.93
2023-10-06T21:55:00.928Z,45.76
2023-10-06T21:57:32.033Z,45.57
2023-10-06T21:59:59.202Z,45.70
2023-10-06T22:02:26.229Z,45.81
2023-10-06T22:04:54.176Z,45.72
2023-10-06T22:07:21.083Z,46.14
2023-10-06T22:09:48.020Z,46.12
2023-10-06T22:12:14.780Z,46.15
2023-10-06T22:14:43.998Z,46.22
2023-10-06T22:17:13.856Z,46.62
2023-10-06T22:19:42.319Z,46.57
2023-10-06T22:22:09.369Z,46.76
2023-10-06T22:24:36.168Z,46.75
2023-10-06T22:27:08.116Z,46.43
2023-10-06T22:29:36.086Z,46.66
2023-10-06T22:32:05.243Z,46.50
2023-10-06T22:34:33.315Z,46.63
2023-10-06T22:39:28.575Z,46.88
2023-10-06T22:41:55.853Z,47.27
2023-10-06T22:44:23.456Z,47.00
2023-10-06T22:46:52.743Z,47.16
2023-10-06T22:49:22.740Z,47.02
2023-10-06T22:51:50.894Z,47.21
2023-10-06T22:54:18.816Z,47.20
2023-10-06T22:56:45.733Z,46.99
2023-10-06T22:59:12.674Z,47.19
2023-10-06T23:01:39.727Z,46.97
2023-10-06T23:04:08.112Z,46.93
2023-10-06T23:06:35.099Z,47.33
2023-10-06T23:09:02.453Z,47.16
2023-10-06T23:11:29.456Z,47.00
2023-10-06T23:13:56.253Z,47.02
2023-10-06T23:16:23.407Z,46.84
2023-10-06T23:18:50.936Z,46.81
2023-10-06T23:21:17.837Z,46.86
2023-10-06T23:23:47.207Z,46.76
2023-10-06T23:26:14.440Z,46.70
2023-10-06T23:28:41.323Z,47.00
2023-10-06T23:31:08.153Z,46.54
2023-10-06T23:33:35.202Z,46.67
2023-10-06T23:36:02.290Z,46.69
2023-10-06T23:38:30.703Z,47.07
2023-10-06T23:41:02.660Z,46.67
2023-10-06T23:43:31.312Z,46.73
2023-10-06T23:45:58.737Z,46.58
2023-10-06T23:48:29.900Z,47.09
2023-10-06T23:51:10.305Z,46.80
2023-10-06T23:53:38.268Z,47.06
2023-10-06T23:56:20.871Z,47.20
2023-10-06T23:58:47.803Z,46.40
